»·PEaware :: N700DK KPAE-KPDX

N700DK :: KPAE-KPDX

FLIGHT INFORMATION

Flight Status: Arrived
Operator: Privately registered:
United States
More flights under this callsign
Pilot: Brendan O. (14500)
Aircraft: CESSNA 340
(C340)
More flights by this aircraft type
Origin: KPAE Paine Field/Snohomish Co.
United States
Destination: KPDX Portland Intl
United States
More flights between these airports :: More routes between these airports
Route: +PAE BUWSO KRATR2
File this flight plan on PilotEdge
Remarks:
Altitude:
(Current/Filed)
19,000ft
Speed:
(Current/Filed)
185kts
Departed: 07-Feb-19 10:11 AM
Arrived: 07-Feb-19 11:07 AM
Distance/Time
Traveled:
140nm/0:56
Distance/Time
To Go:
Arrived

Flight Plot

Page will automatically refresh every two minutes.


Map Options




Map Legend


Flown Route
Filed Route
Departure Airport
Arrival Airport
Navaid (VOR, NDB)
Fix

Horizontal Profiles

Position Reports

Time Latitude Longitude Heading Altitude Ground
Speed
07-Feb-19 09:51 47.920397 -122.291010 309 573ft 0kts
07-Feb-19 09:52 47.920397 -122.291010 309 573ft 0kts
07-Feb-19 09:53 47.920397 -122.291010 309 573ft 0kts
07-Feb-19 09:54 47.920397 -122.291010 309 573ft 0kts
07-Feb-19 09:55 47.920398 -122.291010 309 573ft 0kts
07-Feb-19 09:56 47.920398 -122.291010 309 573ft 0kts
07-Feb-19 09:57 47.920398 -122.291010 309 573ft 0kts
07-Feb-19 09:58 47.920004 -122.290239 114 572ft 13kts
07-Feb-19 09:59 47.920279 -122.289431 149 569ft 0kts
07-Feb-19 10:00 47.920280 -122.289431 149 569ft 0kts
07-Feb-19 10:01 47.920280 -122.289431 149 569ft 0kts
07-Feb-19 10:02 47.920273 -122.289425 149 569ft 0kts
07-Feb-19 10:03 47.920273 -122.289425 149 569ft 0kts
07-Feb-19 10:04 47.920273 -122.289425 149 569ft 0kts
07-Feb-19 10:05 47.920273 -122.289425 149 569ft 0kts
07-Feb-19 10:06 47.920195 -122.288747 53 566ft 0kts
07-Feb-19 10:07 47.920195 -122.288747 53 566ft 0kts
07-Feb-19 10:08 47.920333 -122.288467 54 565ft 12kts
07-Feb-19 10:10 47.920087 -122.285874 179 555ft 38kts
07-Feb-19 10:11 47.889499 -122.285447 173 1351ft 140kts
07-Feb-19 10:12 47.849635 -122.279434 180 2400ft 160kts
07-Feb-19 10:13 47.808690 -122.275058 175 3383ft 164kts
07-Feb-19 10:14 47.764802 -122.274921 176 4321ft 170kts
07-Feb-19 10:15 47.728734 -122.276790 188 5108ft 172kts
07-Feb-19 10:16 47.690857 -122.279266 182 5859ft 176kts
07-Feb-19 10:17 47.655112 -122.281466 181 6536ft 180kts
07-Feb-19 10:18 47.616806 -122.282315 183 7259ft 182kts
07-Feb-19 10:19 47.572908 -122.284124 183 8078ft 185kts
07-Feb-19 10:20 47.520749 -122.286297 184 9036ft 188kts
07-Feb-19 10:21 47.462155 -122.288723 184 10086ft 191kts
07-Feb-19 10:22 47.394988 -122.291506 185 11261ft 195kts
07-Feb-19 10:23 47.322263 -122.294514 186 12506ft 199kts
07-Feb-19 10:24 47.260055 -122.297065 186 13549ft 202kts
07-Feb-19 10:25 47.203342 -122.299380 186 14478ft 204kts
07-Feb-19 10:25 47.155715 -122.301331 187 15246ft 207kts
07-Feb-19 10:27 47.087934 -122.304113 187 16315ft 209kts
07-Feb-19 10:28 47.029754 -122.306478 187 17190ft 210kts
07-Feb-19 10:29 46.970942 -122.308872 186 18024ft 213kts
07-Feb-19 10:29 46.920388 -122.309933 183 18527ft 221kts
07-Feb-19 10:30 46.858457 -122.309646 183 19083ft 224kts
07-Feb-19 10:32 46.784712 -122.309631 183 19510ft 231kts
07-Feb-19 10:33 46.719519 -122.309710 182 19521ft 232kts
07-Feb-19 10:33 46.666423 -122.309575 183 19524ft 227kts
07-Feb-19 10:34 46.603564 -122.309576 183 19525ft 225kts
07-Feb-19 10:35 46.540806 -122.309606 183 19526ft 225kts
07-Feb-19 10:36 46.478241 -122.309630 183 19530ft 226kts
07-Feb-19 10:37 46.414947 -122.309649 183 19532ft 227kts
07-Feb-19 10:38 46.351658 -122.309642 183 19412ft 235kts
07-Feb-19 10:39 46.285359 -122.311405 181 18730ft 250kts
07-Feb-19 10:40 46.218576 -122.330754 206 17456ft 248kts
07-Feb-19 10:41 46.154670 -122.366756 205 16219ft 246kts
07-Feb-19 10:42 46.091832 -122.401745 205 15037ft 243kts
07-Feb-19 10:43 46.028917 -122.435774 204 13773ft 241kts
07-Feb-19 10:44 45.967371 -122.468881 203 12475ft 234kts
07-Feb-19 10:45 45.905555 -122.480006 168 11273ft 230kts
07-Feb-19 10:46 45.856892 -122.464934 167 10236ft 226kts
07-Feb-19 10:47 45.807281 -122.449135 167 9159ft 222kts
07-Feb-19 10:48 45.758200 -122.433557 167 7996ft 216kts
07-Feb-19 10:49 45.715453 -122.420003 167 6984ft 211kts
07-Feb-19 10:50 45.679272 -122.408699 169 6406ft 192kts
07-Feb-19 10:51 45.646550 -122.399780 165 6154ft 178kts
07-Feb-19 10:52 45.616363 -122.383865 137 6165ft 169kts
07-Feb-19 10:53 45.596784 -122.347561 122 6167ft 167kts
07-Feb-19 10:54 45.577690 -122.308497 123 6167ft 167kts
07-Feb-19 10:55 45.559616 -122.271958 123 6165ft 165kts
07-Feb-19 10:56 45.542940 -122.239389 124 6166ft 161kts
07-Feb-19 10:57 45.516456 -122.228736 184 6063ft 165kts
07-Feb-19 10:58 45.441969 -122.235262 183 4663ft 181kts
07-Feb-19 10:59 45.417343 -122.260297 276 3925ft 173kts
07-Feb-19 11:00 45.443972 -122.279633 359 3906ft 128kts
07-Feb-19 11:01 45.471863 -122.288041 310 3473ft 138kts
07-Feb-19 11:02 45.494151 -122.338168 303 3432ft 125kts
07-Feb-19 11:03 45.536656 -122.446570 299 2713ft 146kts
07-Feb-19 11:04 45.557806 -122.500414 293 1504ft 167kts
07-Feb-19 11:05 45.581877 -122.562673 298 100ft 93kts
07-Feb-19 11:06 45.586262 -122.576438 206 20ft 0kts
07-Feb-19 11:07 45.585038 -122.578142 247 20ft 0kts
07-Feb-19 11:08 45.585035 -122.578152 247 20ft 0kts
07-Feb-19 11:09 45.585035 -122.578152 247 20ft 0kts
07-Feb-19 11:10 45.584999 -122.578272 247 20ft 0kts

Navigation Log

Ident Type
Flight plan parsing failed, navigation log unavailable